createdAt,value
2023-05-16T00:00:00.364Z,2.5
2023-05-16T00:05:00.291Z,1.9
2023-05-16T00:10:00.352Z,1.9
2023-05-16T00:15:00.419Z,2.6
2023-05-16T00:20:00.347Z,2.0
2023-05-16T00:25:00.268Z,2.9
2023-05-16T00:30:00.318Z,2.9
2023-05-16T00:35:00.322Z,4.2
2023-05-16T00:40:00.982Z,3.4
2023-05-16T00:45:00.339Z,3.4
2023-05-16T00:50:00.344Z,3.1
2023-05-16T00:55:00.273Z,3.8
2023-05-16T01:00:00.330Z,5.8
2023-05-16T01:05:00.332Z,5.0
2023-05-16T01:10:00.414Z,4.2
2023-05-16T01:15:00.285Z,4.1
2023-05-16T01:20:00.354Z,7.1
2023-05-16T01:25:00.325Z,5.9
2023-05-16T01:30:00.282Z,4.8
2023-05-16T01:35:00.255Z,6.2
2023-05-16T01:40:00.325Z,3.8
2023-05-16T01:45:00.313Z,5.8
2023-05-16T01:50:00.390Z,5.9
2023-05-16T01:55:00.508Z,5.8
2023-05-16T02:00:00.322Z,3.6
2023-05-16T02:05:00.350Z,5.3
2023-05-16T02:10:00.302Z,4.6
2023-05-16T02:15:00.268Z,6.5
2023-05-16T02:20:00.342Z,4.6
2023-05-16T02:25:00.278Z,4.3
2023-05-16T02:30:00.371Z,3.4
2023-05-16T02:35:00.258Z,4.7
2023-05-16T02:40:00.359Z,8.4
2023-05-16T02:45:00.378Z,3.8
2023-05-16T02:50:00.346Z,7.1
2023-05-16T02:55:21.502Z,7.1
2023-05-16T03:00:00.331Z,5.2
2023-05-16T03:05:00.255Z,6.0
2023-05-16T03:10:00.374Z,6.4
2023-05-16T03:15:00.289Z,6.0
2023-05-16T03:20:00.308Z,5.5
2023-05-16T03:25:00.277Z,5.9
2023-05-16T03:30:00.357Z,5.3
2023-05-16T03:35:00.255Z,5.1
2023-05-16T03:40:00.349Z,6.0
2023-05-16T03:45:00.356Z,4.9
2023-05-16T03:50:00.380Z,7.5
2023-05-16T03:55:00.263Z,8.3
2023-05-16T04:00:00.305Z,5.6
2023-05-16T04:05:00.352Z,6.4
2023-05-16T04:10:00.332Z,6.7
2023-05-16T04:15:00.278Z,5.0
2023-05-16T04:20:00.328Z,5.0
2023-05-16T04:25:00.318Z,8.2
2023-05-16T04:30:00.436Z,10.4
2023-05-16T04:35:00.303Z,7.3
2023-05-16T04:40:00.357Z,7.5
2023-05-16T04:45:00.315Z,8.5
2023-05-16T04:50:00.440Z,7.2
2023-05-16T04:55:00.320Z,7.5
2023-05-16T05:00:00.342Z,6.7
2023-05-16T05:05:00.449Z,5.8
2023-05-16T05:10:00.373Z,7.8
2023-05-16T05:15:00.285Z,5.0
2023-05-16T05:20:03.363Z,6.8
2023-05-16T05:25:00.254Z,3.3
2023-05-16T05:30:00.414Z,6.0
2023-05-16T05:35:00.818Z,6.3
2023-05-16T05:40:00.340Z,4.6
2023-05-16T05:45:00.326Z,4.2
2023-05-16T05:50:00.329Z,5.9
2023-05-16T05:55:00.316Z,4.6
2023-05-16T06:00:00.347Z,5.7
2023-05-16T06:05:00.367Z,7.0
2023-05-16T06:10:02.022Z,5.9
2023-05-16T06:15:00.314Z,3.4
2023-05-16T06:20:00.367Z,4.7
2023-05-16T06:25:00.317Z,5.7
2023-05-16T06:30:00.454Z,2.8
2023-05-16T06:35:00.275Z,6.0
2023-05-16T06:40:00.330Z,7.1
2023-05-16T06:45:00.464Z,4.3
2023-05-16T06:50:00.344Z,4.8
2023-05-16T06:55:00.300Z,8.4
2023-05-16T07:00:00.381Z,8.0
2023-05-16T07:05:00.330Z,7.5
2023-05-16T07:10:00.327Z,7.0
2023-05-16T07:15:00.331Z,6.2
2023-05-16T07:20:04.479Z,7.6
2023-05-16T07:25:00.303Z,6.4
2023-05-16T07:30:00.355Z,7.8
2023-05-16T07:35:00.319Z,6.3
2023-05-16T07:40:00.374Z,7.1
2023-05-16T07:45:00.317Z,6.0
2023-05-16T07:50:00.361Z,5.6
2023-05-16T07:55:00.330Z,7.5
2023-05-16T08:00:00.722Z,3.8
2023-05-16T08:05:00.560Z,8.0
2023-05-16T08:10:00.348Z,6.5
2023-05-16T08:15:00.357Z,5.7
2023-05-16T08:20:00.325Z,5.6
2023-05-16T08:25:00.278Z,6.4
2023-05-16T08:30:00.335Z,7.5
2023-05-16T08:35:00.313Z,4.9
2023-05-16T08:40:00.338Z,5.7
2023-05-16T08:45:00.494Z,7.0
2023-05-16T08:50:00.361Z,7.2
2023-05-16T08:55:11.579Z,2.6
2023-05-16T09:00:00.366Z,6.0
2023-05-16T09:05:00.318Z,6.1
2023-05-16T09:10:00.415Z,6.1
2023-05-16T09:15:00.354Z,7.0
2023-05-16T09:20:00.428Z,2.3
2023-05-16T09:25:00.274Z,3.9
2023-05-16T09:30:00.435Z,6.0
2023-05-16T09:35:00.317Z,6.3
2023-05-16T09:40:00.339Z,4.9
2023-05-16T09:45:03.376Z,7.3
2023-05-16T09:50:00.329Z,3.7
2023-05-16T09:55:00.343Z,6.8
2023-05-16T10:00:00.337Z,7.0
2023-05-16T10:05:00.276Z,5.5
2023-05-16T10:10:00.332Z,5.6
2023-05-16T10:15:00.481Z,5.6
2023-05-16T10:20:00.299Z,5.5
2023-05-16T10:25:00.278Z,4.6
2023-05-16T10:30:00.341Z,4.9
2023-05-16T10:35:00.314Z,4.1
2023-05-16T10:40:00.353Z,6.7
2023-05-16T10:45:06.324Z,3.6
2023-05-16T10:50:00.381Z,5.2
2023-05-16T10:55:00.251Z,8.1
2023-05-16T11:00:00.334Z,3.7
2023-05-16T11:05:00.292Z,4.8
2023-05-16T11:10:00.322Z,7.0
2023-05-16T11:15:00.319Z,6.3
2023-05-16T11:20:00.457Z,6.0
2023-05-16T11:25:00.362Z,7.0
2023-05-16T11:30:04.213Z,4.0
2023-05-16T11:35:00.326Z,4.8
2023-05-16T11:40:01.647Z,2.3
2023-05-16T11:45:00.354Z,1.8
2023-05-16T11:50:00.499Z,9.0
2023-05-16T11:55:00.261Z,5.6
2023-05-16T12:00:00.352Z,6.4
2023-05-16T12:05:00.385Z,3.9
2023-05-16T12:10:00.322Z,4.0
2023-05-16T12:15:00.321Z,6.4
2023-05-16T12:20:00.340Z,4.3
2023-05-16T12:25:00.341Z,7.3
2023-05-16T12:30:00.326Z,4.6
2023-05-16T12:35:00.293Z,4.7
2023-05-16T12:40:00.339Z,5.2
2023-05-16T12:45:00.392Z,4.2
2023-05-16T12:50:00.329Z,6.2
2023-05-16T12:55:00.289Z,4.5
2023-05-16T13:00:00.337Z,3.6
2023-05-16T13:05:00.324Z,4.4
2023-05-16T13:10:00.355Z,5.8
2023-05-16T13:15:00.301Z,7.0
2023-05-16T13:20:00.336Z,6.2
2023-05-16T13:25:00.293Z,5.8
2023-05-16T13:30:00.349Z,4.3
2023-05-16T13:35:00.345Z,3.6
2023-05-16T13:40:00.341Z,6.3
2023-05-16T13:45:00.370Z,6.5
2023-05-16T13:50:00.282Z,7.0
2023-05-16T13:55:00.415Z,5.3
2023-05-16T14:00:27.925Z,5.2
2023-05-16T14:05:00.317Z,8.1
2023-05-16T14:10:00.344Z,8.9
2023-05-16T14:15:00.270Z,4.6
2023-05-16T14:20:00.348Z,4.7
2023-05-16T14:25:00.336Z,3.5
2023-05-16T14:30:00.379Z,5.8
2023-05-16T14:35:00.351Z,5.3
2023-05-16T14:40:00.344Z,7.4
2023-05-16T14:45:00.328Z,6.3
2023-05-16T14:50:00.357Z,5.2
2023-05-16T14:55:00.283Z,6.5
2023-05-16T15:00:00.420Z,8.2
2023-05-16T15:05:00.415Z,6.8
2023-05-16T15:10:00.355Z,4.1
2023-05-16T15:15:00.299Z,8.3
2023-05-16T15:20:00.383Z,6.4
2023-05-16T15:25:00.270Z,5.9
2023-05-16T15:30:00.366Z,4.5
2023-05-16T15:35:00.500Z,7.8
2023-05-16T15:40:00.329Z,6.8
2023-05-16T15:45:00.323Z,4.5
2023-05-16T15:50:00.483Z,6.3
2023-05-16T15:55:00.280Z,4.2
2023-05-16T16:00:00.500Z,5.4
2023-05-16T16:05:00.354Z,3.8
2023-05-16T16:10:00.491Z,9.4
2023-05-16T16:15:00.322Z,8.1
2023-05-16T16:20:00.643Z,8.3
2023-05-16T16:25:00.279Z,6.1
2023-05-16T16:30:00.332Z,10.7
2023-05-16T16:35:00.457Z,8.1
2023-05-16T16:40:00.309Z,7.6
2023-05-16T16:45:00.346Z,6.5
2023-05-16T16:50:00.323Z,7.5
2023-05-16T16:55:00.316Z,5.3
2023-05-16T17:00:00.333Z,6.6
2023-05-16T17:05:00.557Z,6.8
2023-05-16T17:10:00.540Z,6.2
2023-05-16T17:15:00.312Z,4.1
2023-05-16T17:20:00.567Z,7.9
2023-05-16T17:25:00.277Z,6.3
2023-05-16T17:30:00.349Z,6.3
2023-05-16T17:35:00.569Z,7.2
2023-05-16T17:40:00.503Z,7.4
2023-05-16T17:45:00.283Z,5.7
2023-05-16T17:50:00.534Z,5.1
2023-05-16T17:55:00.312Z,4.9
2023-05-16T18:00:00.327Z,4.3
2023-05-16T18:05:00.296Z,3.0
2023-05-16T18:10:00.380Z,4.5
2023-05-16T18:15:00.355Z,4.6
2023-05-16T18:20:00.751Z,7.4
2023-05-16T18:25:00.282Z,5.1
2023-05-16T18:30:00.423Z,4.1
2023-05-16T18:35:00.332Z,3.2
2023-05-16T18:40:00.351Z,3.3
2023-05-16T18:45:00.350Z,1.8
2023-05-16T18:50:00.447Z,1.4
2023-05-16T18:55:00.255Z,1.6
2023-05-16T19:00:00.348Z,1.1
2023-05-16T19:05:01.937Z,1.7
2023-05-16T19:10:03.905Z,1.8
2023-05-16T19:15:00.286Z,1.2
2023-05-16T19:20:00.805Z,1.9
2023-05-16T19:25:00.295Z,2.5
2023-05-16T19:30:00.355Z,1.8
2023-05-16T19:35:00.708Z,4.2
2023-05-16T19:40:00.298Z,5.1
2023-05-16T19:45:00.330Z,4.7
2023-05-16T19:50:00.416Z,3.3
2023-05-16T19:55:00.377Z,3.2
2023-05-16T20:00:00.316Z,2.3
2023-05-16T20:05:00.487Z,3.1
2023-05-16T20:10:00.550Z,3.1
2023-05-16T20:15:00.337Z,1.4
2023-05-16T20:20:00.648Z,0.7
2023-05-16T20:25:00.302Z,1.2
2023-05-16T20:30:00.347Z,2.1
2023-05-16T20:35:00.283Z,1.4
2023-05-16T20:40:00.365Z,0.8
2023-05-16T20:45:00.355Z,1.0
2023-05-16T20:50:00.365Z,1.3
2023-05-16T20:55:00.255Z,2.2
2023-05-16T21:00:00.365Z,2.8
2023-05-16T21:05:23.862Z,2.1
2023-05-16T21:10:00.475Z,1.1
2023-05-16T21:15:00.290Z,1.2
2023-05-16T21:20:00.509Z,0.8
2023-05-16T21:25:00.344Z,1.7
2023-05-16T21:30:00.314Z,1.8
2023-05-16T21:35:00.271Z,0.2
2023-05-16T21:40:00.329Z,1.1
2023-05-16T21:45:00.317Z,1.6
2023-05-16T21:50:00.351Z,0.8
2023-05-16T21:55:00.291Z,0.9
2023-05-16T22:00:00.594Z,1.1
2023-05-16T22:05:00.653Z,1.8
2023-05-16T22:10:00.347Z,1.3
2023-05-16T22:15:00.328Z,1.1
2023-05-16T22:20:00.323Z,0.9
2023-05-16T22:25:00.278Z,1.5
2023-05-16T22:30:00.337Z,2.6
2023-05-16T22:35:00.314Z,1.4
2023-05-16T22:40:00.341Z,0.7
2023-05-16T22:45:00.315Z,1.5
2023-05-16T22:50:00.321Z,2.1
2023-05-16T22:55:00.329Z,0.7
2023-05-16T23:00:00.327Z,0.2
2023-05-16T23:05:00.507Z,0.1
2023-05-16T23:10:00.340Z,0.8
2023-05-16T23:15:00.327Z,0.7
2023-05-16T23:20:00.919Z,0.8
2023-05-16T23:25:00.277Z,0.6
2023-05-16T23:30:00.337Z,1.4
2023-05-16T23:35:00.280Z,0.7
2023-05-16T23:40:00.332Z,1.0
2023-05-16T23:45:00.496Z,1.6
2023-05-16T23:50:00.322Z,1.1
2023-05-16T23:55:00.308Z,2.0
